createdAt,value
2023-03-19T00:01:06.495Z,3.10
2023-03-19T00:03:35.281Z,3.20
2023-03-19T00:06:05.561Z,3.10
2023-03-19T00:08:34.003Z,3.03
2023-03-19T00:11:08.764Z,3.40
2023-03-19T00:13:37.582Z,3.28
2023-03-19T00:16:07.020Z,3.17
2023-03-19T00:18:35.539Z,3.33
2023-03-19T00:21:05.827Z,3.00
2023-03-19T00:23:34.138Z,3.15
2023-03-19T00:26:02.447Z,3.40
2023-03-19T00:28:31.401Z,3.10
2023-03-19T00:31:07.369Z,3.50
2023-03-19T00:33:35.618Z,3.10
2023-03-19T00:36:07.117Z,3.65
2023-03-19T00:38:36.699Z,3.03
2023-03-19T00:41:06.512Z,3.70
2023-03-19T00:43:35.116Z,3.50
2023-03-19T00:46:03.647Z,3.70
2023-03-19T00:48:32.150Z,3.50
2023-03-19T00:51:06.108Z,3.83
2023-03-19T00:53:34.823Z,3.85
2023-03-19T00:56:03.027Z,3.80
2023-03-19T00:58:31.306Z,4.25
2023-03-19T01:00:59.728Z,3.75
2023-03-19T01:03:28.103Z,3.95
2023-03-19T01:05:56.338Z,4.53
2023-03-19T01:08:26.226Z,4.43
2023-03-19T01:10:54.752Z,5.07
2023-03-19T01:13:23.111Z,5.20
2023-03-19T01:15:54.567Z,5.03
2023-03-19T01:18:23.141Z,5.32
2023-03-19T01:20:51.600Z,5.93
2023-03-19T01:23:20.038Z,6.13
2023-03-19T01:25:49.746Z,6.75
2023-03-19T01:28:18.286Z,6.40
2023-03-19T01:30:46.712Z,6.50
2023-03-19T01:33:15.549Z,7.82
2023-03-19T01:35:46.332Z,8.25
2023-03-19T01:38:14.710Z,7.88
2023-03-19T01:40:47.596Z,8.77
2023-03-19T01:43:23.755Z,9.30
2023-03-19T01:45:57.293Z,11.25
2023-03-19T01:48:34.201Z,11.55
2023-03-19T01:51:03.152Z,12.02
2023-03-19T01:53:35.040Z,13.13
2023-03-19T01:56:11.538Z,13.05
2023-03-19T01:58:43.275Z,14.98
2023-03-19T02:01:12.049Z,14.50
2023-03-19T02:03:41.438Z,14.50
2023-03-19T02:06:12.309Z,13.32
2023-03-19T02:08:42.008Z,13.25
2023-03-19T02:11:10.445Z,13.75
2023-03-19T02:13:39.064Z,13.25
2023-03-19T02:16:09.994Z,12.93
2023-03-19T02:18:38.579Z,13.60
2023-03-19T02:21:10.262Z,13.18
2023-03-19T02:23:46.814Z,12.93
2023-03-19T02:26:18.082Z,13.00
2023-03-19T02:28:49.816Z,13.18
2023-03-19T02:31:20.674Z,12.95
2023-03-19T02:34:00.637Z,12.50
2023-03-19T02:36:34.774Z,12.35
2023-03-19T02:39:05.449Z,12.25
2023-03-19T02:41:38.461Z,13.10
2023-03-19T02:44:07.595Z,12.52
2023-03-19T02:46:36.186Z,12.18
2023-03-19T02:49:05.520Z,12.52
2023-03-19T02:51:34.401Z,12.32
2023-03-19T02:54:02.808Z,12.40
2023-03-19T02:56:31.575Z,12.55
2023-03-19T02:59:01.500Z,13.52
2023-03-19T03:01:30.192Z,13.77
2023-03-19T03:03:58.637Z,13.35
2023-03-19T03:06:26.938Z,13.63
2023-03-19T03:08:55.639Z,14.45
2023-03-19T03:11:24.068Z,15.32
2023-03-19T03:13:53.662Z,13.45
2023-03-19T03:16:23.412Z,14.27
2023-03-19T03:18:51.930Z,15.07
2023-03-19T03:21:21.716Z,14.90
2023-03-19T03:23:50.042Z,15.27
2023-03-19T03:26:18.380Z,16.30
2023-03-19T03:28:46.863Z,16.35
2023-03-19T03:31:15.739Z,17.15
2023-03-19T03:33:45.872Z,17.80
2023-03-19T03:36:14.471Z,18.35
2023-03-19T03:38:42.774Z,17.60
2023-03-19T03:41:11.147Z,18.50
2023-03-19T03:43:39.584Z,18.20
2023-03-19T03:46:08.785Z,18.52
2023-03-19T03:48:37.378Z,19.45
2023-03-19T03:51:07.813Z,20.08
2023-03-19T03:53:36.102Z,20.30
2023-03-19T03:56:04.571Z,21.77
2023-03-19T03:58:33.241Z,22.60
2023-03-19T04:01:01.531Z,22.23
2023-03-19T04:03:29.996Z,23.13
2023-03-19T04:05:58.372Z,23.50
2023-03-19T04:08:28.303Z,23.75
2023-03-19T04:10:56.600Z,25.27
2023-03-19T04:13:25.489Z,24.98
2023-03-19T04:15:54.592Z,25.05
2023-03-19T04:18:23.007Z,26.10
2023-03-19T04:20:51.734Z,24.67
2023-03-19T04:23:19.988Z,24.40
2023-03-19T04:25:49.903Z,25.33
2023-03-19T04:28:18.237Z,26.10
2023-03-19T04:30:46.615Z,25.98
2023-03-19T04:33:14.943Z,26.73
2023-03-19T04:35:43.390Z,26.70
2023-03-19T04:38:11.813Z,27.27
2023-03-19T04:40:40.110Z,26.27
2023-03-19T04:43:09.860Z,26.05
2023-03-19T04:45:38.186Z,28.23
2023-03-19T04:48:07.082Z,26.90
2023-03-19T04:50:35.860Z,28.02
2023-03-19T04:53:04.276Z,30.95
2023-03-19T04:55:32.758Z,29.00
2023-03-19T04:58:01.542Z,29.65
2023-03-19T05:00:32.220Z,29.35
2023-03-19T05:03:00.866Z,28.77
2023-03-19T05:05:29.297Z,30.30
2023-03-19T05:07:58.509Z,28.42
2023-03-19T05:10:26.829Z,30.13
2023-03-19T05:12:55.104Z,29.55
2023-03-19T05:15:23.837Z,28.23
2023-03-19T05:17:53.664Z,29.02
2023-03-19T05:20:22.214Z,29.23
2023-03-19T05:22:50.643Z,29.77
2023-03-19T05:25:19.324Z,29.15
2023-03-19T05:27:47.892Z,29.58
2023-03-19T05:30:18.196Z,29.65
2023-03-19T05:32:47.184Z,27.67
2023-03-19T05:35:17.483Z,28.40
2023-03-19T05:37:46.114Z,28.42
2023-03-19T05:40:14.935Z,27.83
2023-03-19T05:42:43.539Z,28.98
2023-03-19T05:45:12.850Z,28.45
2023-03-19T05:47:41.282Z,26.92
2023-03-19T05:50:11.830Z,27.88
2023-03-19T05:52:42.213Z,26.83
2023-03-19T05:55:11.178Z,26.35
2023-03-19T05:57:39.711Z,26.20
2023-03-19T06:00:10.463Z,26.00
2023-03-19T06:02:39.566Z,24.58
2023-03-19T06:05:09.244Z,23.65
2023-03-19T06:07:39.280Z,24.63
2023-03-19T06:10:10.975Z,23.10
2023-03-19T06:12:39.925Z,21.67
2023-03-19T06:15:10.526Z,21.88
2023-03-19T06:17:39.332Z,21.95
2023-03-19T06:20:08.441Z,20.75
2023-03-19T06:22:36.961Z,21.20
2023-03-19T06:25:06.819Z,20.83
2023-03-19T06:27:36.722Z,21.50
2023-03-19T06:30:06.348Z,21.88
2023-03-19T06:32:35.066Z,21.65
2023-03-19T06:35:03.587Z,22.13
2023-03-19T06:37:33.172Z,21.80
2023-03-19T06:40:01.867Z,22.92
2023-03-19T06:42:31.357Z,23.38
2023-03-19T06:45:01.751Z,22.33
2023-03-19T06:47:30.274Z,22.40
2023-03-19T06:49:59.746Z,23.60
2023-03-19T06:52:28.473Z,22.95
2023-03-19T06:54:56.866Z,23.00
2023-03-19T06:57:25.658Z,23.50
2023-03-19T06:59:54.175Z,22.23
2023-03-19T07:02:24.484Z,24.15
2023-03-19T07:04:52.933Z,23.77
2023-03-19T07:07:22.286Z,25.17
2023-03-19T07:09:53.307Z,24.90
2023-03-19T07:12:21.754Z,24.85
2023-03-19T07:14:50.039Z,24.60
2023-03-19T07:17:19.580Z,26.05
2023-03-19T07:19:49.477Z,25.77
2023-03-19T07:22:18.036Z,26.20
2023-03-19T07:24:46.531Z,26.42
2023-03-19T07:27:15.154Z,25.75
2023-03-19T07:29:43.433Z,25.55
2023-03-19T07:32:13.487Z,26.08
2023-03-19T07:34:42.431Z,25.83
2023-03-19T07:37:13.045Z,26.08
2023-03-19T07:39:41.573Z,26.17
2023-03-19T07:42:10.256Z,28.55
2023-03-19T07:44:38.585Z,29.50
2023-03-19T07:47:16.052Z,30.17
2023-03-19T07:49:51.108Z,28.25
2023-03-19T07:52:22.283Z,27.80
2023-03-19T07:54:52.418Z,29.60
2023-03-19T07:57:21.043Z,28.77
2023-03-19T07:59:49.448Z,30.17
2023-03-19T08:02:22.698Z,30.77
2023-03-19T08:04:56.684Z,30.75
2023-03-19T08:07:27.511Z,31.00
2023-03-19T08:09:57.600Z,31.38
2023-03-19T08:12:26.207Z,32.95
2023-03-19T08:14:54.888Z,32.10
2023-03-19T08:17:23.254Z,35.60
2023-03-19T08:19:51.701Z,37.58
2023-03-19T08:22:20.372Z,41.53
2023-03-19T08:24:50.247Z,42.42
2023-03-19T08:27:18.714Z,42.85
2023-03-19T08:29:47.122Z,45.50
2023-03-19T08:32:16.198Z,46.05
2023-03-19T08:34:44.780Z,48.38
2023-03-19T08:37:13.564Z,49.13
2023-03-19T08:39:42.462Z,47.28
2023-03-19T08:42:12.948Z,48.22
2023-03-19T08:44:41.216Z,46.72
2023-03-19T08:47:12.177Z,47.90
2023-03-19T08:49:40.891Z,47.80
2023-03-19T08:52:09.888Z,47.25
2023-03-19T08:54:38.364Z,44.65
2023-03-19T08:57:07.145Z,44.35
2023-03-19T08:59:36.958Z,45.70
2023-03-19T09:02:05.939Z,46.00
2023-03-19T09:04:37.373Z,45.97
2023-03-19T09:07:06.236Z,45.83
2023-03-19T09:09:35.280Z,48.35
2023-03-19T09:12:03.772Z,46.20
2023-03-19T09:14:32.693Z,44.83
2023-03-19T09:17:03.809Z,43.88
2023-03-19T09:19:33.239Z,45.42
2023-03-19T09:22:02.010Z,43.13
2023-03-19T09:24:30.414Z,42.28
2023-03-19T09:26:58.781Z,42.40
2023-03-19T09:29:27.058Z,41.17
2023-03-19T09:31:55.736Z,46.78
2023-03-19T09:34:25.863Z,43.08
2023-03-19T09:36:54.214Z,42.45
2023-03-19T09:39:22.504Z,40.78
2023-03-19T09:42:04.497Z,41.15
2023-03-19T09:44:37.897Z,41.38
2023-03-19T09:47:25.859Z,44.35
2023-03-19T09:49:58.884Z,43.00
2023-03-19T09:52:45.408Z,40.13
2023-03-19T09:55:32.560Z,36.95
2023-03-19T09:58:02.236Z,33.70
2023-03-19T10:00:35.454Z,35.13
2023-03-19T10:03:12.846Z,31.58
2023-03-19T10:05:54.168Z,32.38
2023-03-19T10:08:46.255Z,31.17
2023-03-19T10:11:38.970Z,30.90
2023-03-19T10:14:28.526Z,30.13
2023-03-19T10:16:59.911Z,31.50
2023-03-19T10:19:40.940Z,30.92
2023-03-19T10:22:18.100Z,32.38
2023-03-19T10:24:49.538Z,30.27
2023-03-19T10:27:20.859Z,30.60
2023-03-19T10:29:50.302Z,31.02
2023-03-19T10:32:24.225Z,30.20
2023-03-19T10:34:54.355Z,30.25
2023-03-19T10:37:27.965Z,30.85
2023-03-19T10:39:59.362Z,30.55
2023-03-19T10:42:49.511Z,29.48
2023-03-19T10:45:27.876Z,28.90
2023-03-19T10:47:58.927Z,28.33
2023-03-19T10:50:33.908Z,28.10
2023-03-19T10:53:33.467Z,27.98
2023-03-19T10:56:05.581Z,26.75
2023-03-19T10:58:37.012Z,26.63
2023-03-19T11:01:09.649Z,27.10
2023-03-19T11:03:40.914Z,28.38
2023-03-19T11:06:20.296Z,28.08
2023-03-19T11:09:01.098Z,28.23
2023-03-19T11:11:36.970Z,29.70
2023-03-19T11:14:11.448Z,28.38
2023-03-19T11:16:52.594Z,27.48
2023-03-19T11:19:24.181Z,25.40
2023-03-19T11:22:09.294Z,26.70
2023-03-19T11:24:42.084Z,27.80
2023-03-19T11:27:12.714Z,26.33
2023-03-19T11:29:43.766Z,25.70
2023-03-19T11:32:54.006Z,24.85
2023-03-19T11:35:26.593Z,23.40
2023-03-19T11:37:57.604Z,24.30
2023-03-19T11:40:40.502Z,23.80
2023-03-19T11:43:38.419Z,24.40
2023-03-19T11:46:21.765Z,23.67
2023-03-19T11:49:16.984Z,22.50
2023-03-19T11:51:52.388Z,22.27
2023-03-19T11:54:31.677Z,24.75
2023-03-19T11:57:09.213Z,24.73
2023-03-19T12:00:08.174Z,23.02
2023-03-19T12:03:25.790Z,23.63
2023-03-19T12:06:00.746Z,24.40
2023-03-19T12:08:40.732Z,25.50
2023-03-19T12:11:22.672Z,25.83
2023-03-19T12:14:10.399Z,23.35
2023-03-19T12:16:57.706Z,24.85
2023-03-19T12:19:43.746Z,23.88
2023-03-19T12:22:28.521Z,21.08
2023-03-19T12:25:25.155Z,24.50
2023-03-19T12:27:59.329Z,22.48
2023-03-19T12:30:38.462Z,23.92
2023-03-19T12:33:23.326Z,23.58
2023-03-19T12:35:56.142Z,24.13
2023-03-19T12:38:43.267Z,24.35
2023-03-19T12:41:16.386Z,25.60
2023-03-19T12:43:53.608Z,26.27
2023-03-19T12:46:30.225Z,27.58
2023-03-19T12:49:04.176Z,28.90
2023-03-19T12:51:37.803Z,29.35
2023-03-19T12:54:21.731Z,29.73
2023-03-19T12:56:58.645Z,30.40
2023-03-19T12:59:35.635Z,30.15
2023-03-19T13:02:17.468Z,28.15
2023-03-19T13:04:54.551Z,29.25
2023-03-19T13:07:30.123Z,29.35
2023-03-19T13:10:08.127Z,28.33
2023-03-19T13:12:38.781Z,29.15
2023-03-19T13:15:14.218Z,28.45
2023-03-19T13:20:36.397Z,27.63
2023-03-19T13:23:07.013Z,28.00
2023-03-19T13:25:44.326Z,27.67
2023-03-19T13:28:19.990Z,27.40
2023-03-19T13:31:07.780Z,27.05
2023-03-19T13:33:44.030Z,26.83
2023-03-19T13:36:18.047Z,27.90
2023-03-19T13:38:51.360Z,27.75
2023-03-19T13:41:52.249Z,28.08
2023-03-19T13:44:54.857Z,28.65
2023-03-19T13:47:42.421Z,28.98
2023-03-19T13:50:34.138Z,29.98
2023-03-19T13:53:34.710Z,30.38
2023-03-19T13:56:15.693Z,31.00
2023-03-19T13:58:56.475Z,30.98
2023-03-19T14:01:47.687Z,32.10
2023-03-19T14:04:22.015Z,31.00
2023-03-19T14:06:55.135Z,31.20
2023-03-19T14:09:40.106Z,31.30
2023-03-19T14:12:33.437Z,30.92
2023-03-19T14:15:18.975Z,31.95
2023-03-19T14:17:57.818Z,30.52
2023-03-19T14:20:37.113Z,31.80
2023-03-19T14:23:36.082Z,32.25
2023-03-19T14:26:14.323Z,30.83
2023-03-19T14:28:53.474Z,31.15
2023-03-19T14:31:32.965Z,27.33
2023-03-19T14:34:10.794Z,26.40
2023-03-19T14:36:45.372Z,29.52
2023-03-19T14:39:23.633Z,29.60
2023-03-19T14:41:59.915Z,31.15
2023-03-19T14:45:43.094Z,27.98
2023-03-19T14:48:25.357Z,30.88
2023-03-19T14:51:40.747Z,28.85
2023-03-19T14:54:29.619Z,29.05
2023-03-19T14:57:01.373Z,27.25
2023-03-19T14:59:40.081Z,27.98
2023-03-19T15:02:33.163Z,27.15
2023-03-19T15:05:03.691Z,26.45
2023-03-19T15:07:40.747Z,27.23
2023-03-19T15:10:19.654Z,26.58
2023-03-19T15:13:14.714Z,26.45
2023-03-19T15:16:19.376Z,25.60
2023-03-19T15:18:47.957Z,25.92
2023-03-19T15:21:18.451Z,25.52
2023-03-19T15:23:48.700Z,26.48
2023-03-19T15:26:32.306Z,27.02
2023-03-19T15:29:00.960Z,25.90
2023-03-19T15:31:54.003Z,28.20
2023-03-19T15:34:31.296Z,27.10
2023-03-19T15:37:05.759Z,28.00
2023-03-19T15:39:39.319Z,27.42
2023-03-19T15:42:09.932Z,29.40
2023-03-19T15:44:45.645Z,29.00
2023-03-19T15:47:19.098Z,29.75
2023-03-19T15:49:57.444Z,29.17
2023-03-19T15:52:27.274Z,28.25
2023-03-19T15:54:56.969Z,27.65
2023-03-19T15:57:30.601Z,27.35
2023-03-19T16:00:02.737Z,28.08
2023-03-19T16:02:33.880Z,28.13
2023-03-19T16:05:21.042Z,26.45
2023-03-19T16:07:58.290Z,24.98
2023-03-19T16:10:41.020Z,21.42
2023-03-19T16:13:32.066Z,23.27
2023-03-19T16:16:08.700Z,24.85
2023-03-19T16:18:50.690Z,21.30
2023-03-19T16:21:22.107Z,21.50
2023-03-19T16:23:59.272Z,20.60
2023-03-19T16:26:31.814Z,20.25
2023-03-19T16:29:09.592Z,20.10
2023-03-19T16:31:46.553Z,19.25
2023-03-19T16:34:43.116Z,18.00
2023-03-19T16:37:42.290Z,19.05
2023-03-19T16:40:44.783Z,19.83
2023-03-19T16:43:19.395Z,20.58
2023-03-19T16:46:04.556Z,20.55
2023-03-19T16:48:33.043Z,19.40
2023-03-19T16:51:01.548Z,20.55
2023-03-19T16:53:33.153Z,20.88
2023-03-19T16:56:03.427Z,22.75
2023-03-19T16:58:42.510Z,21.88
2023-03-19T17:01:19.473Z,22.67
2023-03-19T17:03:50.670Z,21.95
2023-03-19T17:06:20.356Z,23.25
2023-03-19T17:08:48.958Z,22.35
2023-03-19T17:11:25.544Z,24.85
2023-03-19T17:13:55.892Z,24.80
2023-03-19T17:16:27.475Z,25.48
2023-03-19T17:18:57.740Z,24.83
2023-03-19T17:21:28.778Z,24.80
2023-03-19T17:23:58.050Z,25.65
2023-03-19T17:26:29.422Z,28.42
2023-03-19T17:28:58.646Z,26.70
2023-03-19T17:31:32.993Z,25.55
2023-03-19T17:34:05.886Z,26.10
2023-03-19T17:36:34.843Z,26.23
2023-03-19T17:39:03.828Z,24.48
2023-03-19T17:41:35.694Z,25.77
2023-03-19T17:44:06.590Z,26.20
2023-03-19T17:46:40.827Z,27.05
2023-03-19T17:49:20.382Z,27.25
2023-03-19T17:51:49.150Z,26.50
2023-03-19T17:54:17.938Z,28.08
2023-03-19T17:56:47.425Z,26.50
2023-03-19T17:59:16.136Z,25.70
2023-03-19T18:01:47.215Z,26.08
2023-03-19T18:04:18.414Z,27.08
2023-03-19T18:06:50.807Z,25.80
2023-03-19T18:09:23.126Z,28.50
2023-03-19T18:11:51.898Z,27.10
2023-03-19T18:14:20.293Z,28.67
2023-03-19T18:16:50.230Z,29.13
2023-03-19T18:19:25.454Z,27.85
2023-03-19T18:21:53.889Z,27.80
2023-03-19T18:24:22.336Z,24.23
2023-03-19T18:26:50.756Z,24.05
2023-03-19T18:29:19.033Z,22.55
2023-03-19T18:31:51.479Z,19.67
2023-03-19T18:34:20.243Z,19.88
2023-03-19T18:36:48.859Z,19.05
2023-03-19T18:39:17.892Z,18.27
2023-03-19T18:41:46.439Z,18.20
2023-03-19T18:44:14.842Z,19.45
2023-03-19T18:46:44.055Z,19.35
2023-03-19T18:49:39.224Z,19.52
2023-03-19T18:52:07.912Z,19.05
2023-03-19T18:54:36.224Z,18.35
2023-03-19T18:57:05.822Z,19.80
2023-03-19T18:59:35.768Z,20.10
2023-03-19T19:02:21.224Z,18.70
2023-03-19T19:04:51.194Z,18.58
2023-03-19T19:07:19.719Z,18.60
2023-03-19T19:09:48.090Z,19.35
2023-03-19T19:12:20.801Z,19.25
2023-03-19T19:14:49.770Z,18.00
2023-03-19T19:17:21.325Z,16.63
2023-03-19T19:19:51.335Z,17.00
2023-03-19T19:22:20.616Z,14.57
2023-03-19T19:24:49.172Z,13.73
2023-03-19T19:27:20.585Z,12.63
2023-03-19T19:29:49.856Z,12.93
2023-03-19T19:32:25.802Z,13.43
2023-03-19T19:34:56.475Z,13.55
2023-03-19T19:37:25.542Z,13.05
2023-03-19T19:39:54.271Z,12.20
2023-03-19T19:42:24.751Z,12.10
2023-03-19T19:44:56.075Z,13.13
2023-03-19T19:47:25.202Z,13.85
2023-03-19T19:49:56.455Z,12.55
2023-03-19T19:52:24.829Z,13.73
2023-03-19T19:54:53.182Z,12.90
2023-03-19T19:57:25.004Z,14.63
2023-03-19T19:59:55.451Z,16.02
2023-03-19T20:02:26.141Z,16.77
2023-03-19T20:04:56.792Z,16.40
2023-03-19T20:07:25.268Z,16.52
2023-03-19T20:09:53.560Z,15.88
2023-03-19T20:12:23.788Z,15.93
2023-03-19T20:14:53.042Z,16.35
2023-03-19T20:17:22.178Z,16.98
2023-03-19T20:19:50.946Z,19.40
2023-03-19T20:22:20.738Z,20.33
2023-03-19T20:24:51.242Z,21.98
2023-03-19T20:27:24.188Z,24.27
2023-03-19T20:29:54.300Z,24.48
2023-03-19T20:32:29.867Z,25.48
2023-03-19T20:34:59.356Z,25.55
2023-03-19T20:37:30.009Z,27.55
2023-03-19T20:39:59.501Z,27.92
2023-03-19T20:42:30.285Z,24.40
2023-03-19T20:45:01.359Z,24.83
2023-03-19T20:47:32.997Z,22.33
2023-03-19T20:50:02.074Z,21.90
2023-03-19T20:52:31.851Z,17.67
2023-03-19T20:55:00.931Z,18.65
2023-03-19T20:57:30.760Z,18.25
2023-03-19T21:00:13.032Z,17.35
2023-03-19T21:02:41.526Z,12.65
2023-03-19T21:05:13.379Z,12.18
2023-03-19T21:07:46.678Z,11.48
2023-03-19T21:10:29.994Z,10.27
2023-03-19T21:12:58.986Z,9.82
2023-03-19T21:15:28.656Z,9.63
2023-03-19T21:17:57.664Z,9.13
2023-03-19T21:20:28.956Z,9.65
2023-03-19T21:23:08.638Z,8.75
2023-03-19T21:25:38.155Z,8.88
2023-03-19T21:28:13.116Z,7.90
2023-03-19T21:30:45.041Z,8.65
2023-03-19T21:33:24.404Z,7.68
2023-03-19T21:35:53.398Z,6.85
2023-03-19T21:38:23.447Z,7.20
2023-03-19T21:40:55.166Z,7.55
2023-03-19T21:43:30.176Z,6.90
2023-03-19T21:45:58.940Z,5.57
2023-03-19T21:48:32.203Z,5.72
2023-03-19T21:51:02.415Z,5.32
2023-03-19T21:53:32.257Z,5.82
2023-03-19T21:56:02.361Z,6.00
2023-03-19T21:58:33.575Z,5.43
2023-03-19T22:01:09.181Z,5.53
2023-03-19T22:03:37.742Z,5.78
2023-03-19T22:06:07.553Z,5.88
2023-03-19T22:08:37.396Z,4.95
2023-03-19T22:11:17.253Z,4.22
2023-03-19T22:13:46.046Z,4.22
2023-03-19T22:16:20.717Z,3.90
2023-03-19T22:18:52.205Z,3.88
2023-03-19T22:21:23.574Z,4.82
2023-03-19T22:23:53.316Z,4.30
2023-03-19T22:26:32.173Z,4.95
2023-03-19T22:29:02.959Z,4.97
2023-03-19T22:31:32.530Z,6.10
2023-03-19T22:34:01.122Z,5.90
2023-03-19T22:36:29.786Z,6.25
2023-03-19T22:38:59.585Z,5.85
2023-03-19T22:41:34.202Z,7.95
2023-03-19T22:44:06.298Z,7.97
2023-03-19T22:46:35.182Z,8.30
2023-03-19T22:49:09.084Z,7.57
2023-03-19T22:51:37.667Z,7.93
2023-03-19T22:54:08.164Z,7.95
2023-03-19T22:56:36.445Z,7.10
2023-03-19T22:59:05.209Z,7.40
2023-03-19T23:01:41.531Z,7.13
2023-03-19T23:04:21.227Z,6.80
2023-03-19T23:06:51.918Z,7.28
2023-03-19T23:09:25.278Z,6.78
2023-03-19T23:11:54.893Z,7.70
2023-03-19T23:14:30.265Z,7.55
2023-03-19T23:17:03.093Z,6.80
2023-03-19T23:19:34.846Z,7.32
2023-03-19T23:22:05.656Z,7.88
2023-03-19T23:24:35.600Z,7.40
2023-03-19T23:27:04.931Z,8.15
2023-03-19T23:29:37.598Z,8.38
2023-03-19T23:32:06.502Z,7.63
2023-03-19T23:34:42.323Z,8.32
2023-03-19T23:37:14.322Z,8.13
2023-03-19T23:39:43.960Z,8.57
2023-03-19T23:42:20.586Z,8.05
2023-03-19T23:44:48.853Z,7.60
2023-03-19T23:47:17.463Z,7.22
2023-03-19T23:49:46.090Z,6.75
2023-03-19T23:52:15.550Z,6.68
2023-03-19T23:54:45.155Z,7.18
2023-03-19T23:57:16.697Z,6.78
2023-03-19T23:59:49.117Z,6.93
